sensor_id;sensor_type;location;lat;lon;timestamp;pressure;altitude;pressure_sealevel;temperature;humidity
70506;BME280;58032;49.820;6.274;2023-07-13T00:00:12;97718.09;;;13.39;100.00
70506;BME280;58032;49.820;6.274;2023-07-13T00:02:40;97724.38;;;13.43;100.00
70506;BME280;58032;49.820;6.274;2023-07-13T00:05:08;97709.41;;;13.52;100.00
70506;BME280;58032;49.820;6.274;2023-07-13T00:07:35;97717.41;;;13.53;100.00
70506;BME280;58032;49.820;6.274;2023-07-13T00:10:03;97715.06;;;13.52;100.00
70506;BME280;58032;49.820;6.274;2023-07-13T00:12:33;97713.66;;;13.56;100.00
70506;BME280;58032;49.820;6.274;2023-07-13T00:15:05;97715.69;;;13.56;100.00
70506;BME280;58032;49.820;6.274;2023-07-13T00:17:33;97712.25;;;13.52;100.00
70506;BME280;58032;49.820;6.274;2023-07-13T00:20:00;97710.66;;;13.51;100.00
70506;BME280;58032;49.820;6.274;2023-07-13T00:22:27;97701.25;;;13.54;100.00
70506;BME280;58032;49.820;6.274;2023-07-13T00:24:54;97703.59;;;13.55;100.00
70506;BME280;58032;49.820;6.274;2023-07-13T00:27:23;97700.59;;;13.50;100.00
70506;BME280;58032;49.820;6.274;2023-07-13T00:29:53;97687.13;;;13.44;100.00
70506;BME280;58032;49.820;6.274;2023-07-13T00:32:20;97697.84;;;13.40;100.00
70506;BME280;58032;49.820;6.274;2023-07-13T00:34:47;97700.81;;;13.37;100.00
70506;BME280;58032;49.820;6.274;2023-07-13T00:37:14;97708.50;;;13.36;100.00
70506;BME280;58032;49.820;6.274;2023-07-13T00:39:41;97705.34;;;13.34;100.00
70506;BME280;58032;49.820;6.274;2023-07-13T00:42:08;97694.69;;;13.29;100.00
70506;BME280;58032;49.820;6.274;2023-07-13T00:44:35;97686.69;;;13.27;100.00
70506;BME280;58032;49.820;6.274;2023-07-13T00:47:02;97681.19;;;13.24;100.00
70506;BME280;58032;49.820;6.274;2023-07-13T00:49:31;97688.28;;;13.19;100.00
70506;BME280;58032;49.820;6.274;2023-07-13T00:52:06;97693.59;;;13.26;100.00
70506;BME280;58032;49.820;6.274;2023-07-13T00:54:37;97686.22;;;13.38;100.00
70506;BME280;58032;49.820;6.274;2023-07-13T00:57:08;97685.88;;;13.45;100.00
70506;BME280;58032;49.820;6.274;2023-07-13T00:59:40;97681.47;;;13.44;100.00
70506;BME280;58032;49.820;6.274;2023-07-13T01:02:09;97678.50;;;13.29;100.00
70506;BME280;58032;49.820;6.274;2023-07-13T01:04:36;97676.50;;;13.11;100.00
70506;BME280;58032;49.820;6.274;2023-07-13T01:07:06;97684.22;;;13.02;100.00
70506;BME280;58032;49.820;6.274;2023-07-13T01:09:33;97691.28;;;12.97;100.00
70506;BME280;58032;49.820;6.274;2023-07-13T01:12:01;97690.53;;;12.96;100.00
70506;BME280;58032;49.820;6.274;2023-07-13T01:14:29;97694.75;;;12.92;100.00
70506;BME280;58032;49.820;6.274;2023-07-13T01:16:56;97688.19;;;12.86;100.00
70506;BME280;58032;49.820;6.274;2023-07-13T01:19:35;97695.25;;;12.90;100.00
70506;BME280;58032;49.820;6.274;2023-07-13T01:22:14;97701.03;;;12.96;100.00
70506;BME280;58032;49.820;6.274;2023-07-13T01:24:44;97696.16;;;12.96;100.00
70506;BME280;58032;49.820;6.274;2023-07-13T01:27:15;97697.09;;;13.03;100.00
70506;BME280;58032;49.820;6.274;2023-07-13T01:29:44;97705.56;;;13.12;100.00
70506;BME280;58032;49.820;6.274;2023-07-13T01:32:17;97711.53;;;13.14;100.00
70506;BME280;58032;49.820;6.274;2023-07-13T01:34:50;97717.97;;;13.14;100.00
70506;BME280;58032;49.820;6.274;2023-07-13T01:37:17;97717.97;;;13.05;100.00
70506;BME280;58032;49.820;6.274;2023-07-13T01:39:44;97720.50;;;12.94;100.00
70506;BME280;58032;49.820;6.274;2023-07-13T01:42:11;97718.47;;;12.94;100.00
70506;BME280;58032;49.820;6.274;2023-07-13T01:44:38;97719.09;;;12.98;100.00
70506;BME280;58032;49.820;6.274;2023-07-13T01:47:06;97722.06;;;13.04;100.00
70506;BME280;58032;49.820;6.274;2023-07-13T01:49:33;97717.66;;;13.12;100.00
70506;BME280;58032;49.820;6.274;2023-07-13T01:52:00;97720.47;;;13.22;100.00
70506;BME280;58032;49.820;6.274;2023-07-13T01:54:27;97712.91;;;13.28;100.00
70506;BME280;58032;49.820;6.274;2023-07-13T01:56:54;97710.72;;;13.32;100.00
70506;BME280;58032;49.820;6.274;2023-07-13T01:59:21;97708.16;;;13.34;100.00
70506;BME280;58032;49.820;6.274;2023-07-13T02:01:48;97717.31;;;13.38;100.00
70506;BME280;58032;49.820;6.274;2023-07-13T02:04:15;97715.09;;;13.42;100.00
70506;BME280;58032;49.820;6.274;2023-07-13T02:06:42;97718.38;;;13.50;100.00
70506;BME280;58032;49.820;6.274;2023-07-13T02:09:09;97724.19;;;13.56;100.00
70506;BME280;58032;49.820;6.274;2023-07-13T02:11:36;97730.13;;;13.58;100.00
70506;BME280;58032;49.820;6.274;2023-07-13T02:14:03;97728.88;;;13.59;100.00
70506;BME280;58032;49.820;6.274;2023-07-13T02:16:30;97723.38;;;13.65;100.00
70506;BME280;58032;49.820;6.274;2023-07-13T02:18:57;97731.06;;;13.64;100.00
70506;BME280;58032;49.820;6.274;2023-07-13T02:21:26;97726.38;;;13.61;100.00
70506;BME280;58032;49.820;6.274;2023-07-13T02:23:53;97721.34;;;13.56;100.00
70506;BME280;58032;49.820;6.274;2023-07-13T02:26:21;97728.91;;;13.50;100.00
70506;BME280;58032;49.820;6.274;2023-07-13T02:28:48;97730.81;;;13.43;100.00
70506;BME280;58032;49.820;6.274;2023-07-13T02:31:15;97723.88;;;13.35;100.00
70506;BME280;58032;49.820;6.274;2023-07-13T02:33:42;97729.56;;;13.26;100.00
70506;BME280;58032;49.820;6.274;2023-07-13T02:36:11;97741.06;;;13.13;100.00
70506;BME280;58032;49.820;6.274;2023-07-13T02:38:38;97735.75;;;13.06;100.00
70506;BME280;58032;49.820;6.274;2023-07-13T02:41:06;97734.94;;;13.05;100.00
70506;BME280;58032;49.820;6.274;2023-07-13T02:43:37;97739.50;;;13.03;100.00
70506;BME280;58032;49.820;6.274;2023-07-13T02:46:04;97737.31;;;12.97;100.00
70506;BME280;58032;49.820;6.274;2023-07-13T02:48:36;97745.16;;;12.93;100.00
70506;BME280;58032;49.820;6.274;2023-07-13T02:51:04;97734.00;;;12.90;100.00
70506;BME280;58032;49.820;6.274;2023-07-13T02:53:31;97732.13;;;12.87;100.00
70506;BME280;58032;49.820;6.274;2023-07-13T02:55:58;97737.16;;;12.73;100.00
70506;BME280;58032;49.820;6.274;2023-07-13T02:58:25;97746.25;;;12.68;100.00
70506;BME280;58032;49.820;6.274;2023-07-13T03:00:52;97739.50;;;12.65;100.00
70506;BME280;58032;49.820;6.274;2023-07-13T03:03:19;97743.59;;;12.64;100.00
70506;BME280;58032;49.820;6.274;2023-07-13T03:05:47;97745.63;;;12.64;100.00
70506;BME280;58032;49.820;6.274;2023-07-13T03:08:20;97734.94;;;12.68;100.00
70506;BME280;58032;49.820;6.274;2023-07-13T03:10:59;97742.50;;;12.62;100.00
70506;BME280;58032;49.820;6.274;2023-07-13T03:13:27;97748.91;;;12.62;100.00
70506;BME280;58032;49.820;6.274;2023-07-13T03:15:54;97750.03;;;12.56;100.00
70506;BME280;58032;49.820;6.274;2023-07-13T03:18:21;97746.06;;;12.53;100.00
70506;BME280;58032;49.820;6.274;2023-07-13T03:20:51;97741.53;;;12.46;100.00
70506;BME280;58032;49.820;6.274;2023-07-13T03:23:19;97745.09;;;12.38;100.00
70506;BME280;58032;49.820;6.274;2023-07-13T03:25:46;97755.94;;;12.30;100.00
70506;BME280;58032;49.820;6.274;2023-07-13T03:28:14;97757.00;;;12.23;100.00
70506;BME280;58032;49.820;6.274;2023-07-13T03:30:42;97763.13;;;12.22;100.00
70506;BME280;58032;49.820;6.274;2023-07-13T03:33:09;97756.56;;;12.25;100.00
70506;BME280;58032;49.820;6.274;2023-07-13T03:35:40;97762.69;;;12.32;100.00
70506;BME280;58032;49.820;6.274;2023-07-13T03:38:07;97769.28;;;12.39;100.00
70506;BME280;58032;49.820;6.274;2023-07-13T03:40:34;97767.72;;;12.47;100.00
70506;BME280;58032;49.820;6.274;2023-07-13T03:43:01;97775.13;;;12.54;100.00
70506;BME280;58032;49.820;6.274;2023-07-13T03:45:30;97767.41;;;12.54;100.00
70506;BME280;58032;49.820;6.274;2023-07-13T03:47:57;97780.41;;;12.42;100.00
70506;BME280;58032;49.820;6.274;2023-07-13T03:50:24;97781.34;;;12.30;100.00
70506;BME280;58032;49.820;6.274;2023-07-13T03:52:51;97778.66;;;12.26;100.00
70506;BME280;58032;49.820;6.274;2023-07-13T03:55:18;97779.91;;;12.25;100.00
70506;BME280;58032;49.820;6.274;2023-07-13T03:57:45;97780.72;;;12.26;100.00
70506;BME280;58032;49.820;6.274;2023-07-13T04:00:13;97782.44;;;12.32;100.00
70506;BME280;58032;49.820;6.274;2023-07-13T04:02:43;97777.13;;;12.34;100.00
70506;BME280;58032;49.820;6.274;2023-07-13T04:05:10;97780.41;;;12.42;100.00
70506;BME280;58032;49.820;6.274;2023-07-13T04:07:37;97777.78;;;12.48;100.00
70506;BME280;58032;49.820;6.274;2023-07-13T04:10:06;97773.69;;;12.49;100.00
70506;BME280;58032;49.820;6.274;2023-07-13T04:12:33;97777.31;;;12.59;100.00
70506;BME280;58032;49.820;6.274;2023-07-13T04:15:00;97784.09;;;12.80;100.00
70506;BME280;58032;49.820;6.274;2023-07-13T04:17:27;97783.31;;;12.98;100.00
70506;BME280;58032;49.820;6.274;2023-07-13T04:19:54;97787.72;;;12.99;100.00
70506;BME280;58032;49.820;6.274;2023-07-13T04:22:21;97786.75;;;13.11;100.00
70506;BME280;58032;49.820;6.274;2023-07-13T04:24:48;97791.31;;;13.37;100.00
70506;BME280;58032;49.820;6.274;2023-07-13T04:27:15;97782.34;;;13.48;100.00
70506;BME280;58032;49.820;6.274;2023-07-13T04:29:42;97788.22;;;13.87;100.00
70506;BME280;58032;49.820;6.274;2023-07-13T04:32:09;97783.25;;;14.64;100.00
70506;BME280;58032;49.820;6.274;2023-07-13T04:34:36;97776.34;;;14.40;100.00
70506;BME280;58032;49.820;6.274;2023-07-13T04:37:03;97790.59;;;13.79;100.00
70506;BME280;58032;49.820;6.274;2023-07-13T04:39:31;97790.53;;;13.45;100.00
70506;BME280;58032;49.820;6.274;2023-07-13T04:41:58;97786.13;;;13.97;100.00
70506;BME280;58032;49.820;6.274;2023-07-13T04:44:25;97785.63;;;16.54;100.00
70506;BME280;58032;49.820;6.274;2023-07-13T04:46:51;97784.97;;;18.06;100.00
70506;BME280;58032;49.820;6.274;2023-07-13T04:49:18;97776.00;;;19.28;100.00
70506;BME280;58032;49.820;6.274;2023-07-13T04:51:45;67390.78;;;-149.55;100.00
70506;BME280;58032;49.820;6.274;2023-07-13T04:54:12;97769.97;;;19.09;100.00
70506;BME280;58032;49.820;6.274;2023-07-13T04:56:39;97780.53;;;17.00;100.00
70506;BME280;58032;49.820;6.274;2023-07-13T04:59:06;97795.88;;;17.55;100.00
70506;BME280;58032;49.820;6.274;2023-07-13T05:01:33;97791.72;;;19.84;100.00
70506;BME280;58032;49.820;6.274;2023-07-13T05:04:01;97785.44;;;20.48;100.00
70506;BME280;58032;49.820;6.274;2023-07-13T05:06:28;97792.16;;;20.79;100.00
70506;BME280;58032;49.820;6.274;2023-07-13T05:08:57;97787.84;;;21.68;100.00
70506;BME280;58032;49.820;6.274;2023-07-13T05:11:24;97797.44;;;22.92;100.00
70506;BME280;58032;49.820;6.274;2023-07-13T05:13:51;97788.75;;;22.98;100.00
70506;BME280;58032;49.820;6.274;2023-07-13T05:16:19;97785.72;;;24.05;100.00
70506;BME280;58032;49.820;6.274;2023-07-13T05:18:46;97788.50;;;23.59;99.93
70506;BME280;58032;49.820;6.274;2023-07-13T05:21:13;97786.22;;;20.49;100.00
70506;BME280;58032;49.820;6.274;2023-07-13T05:23:40;97802.25;;;18.78;100.00
70506;BME280;58032;49.820;6.274;2023-07-13T05:26:09;97801.22;;;18.38;100.00
70506;BME280;58032;49.820;6.274;2023-07-13T05:28:36;97803.13;;;17.56;100.00
70506;BME280;58032;49.820;6.274;2023-07-13T05:31:05;97809.72;;;17.21;100.00
70506;BME280;58032;49.820;6.274;2023-07-13T05:33:32;97810.91;;;16.73;100.00
70506;BME280;58032;49.820;6.274;2023-07-13T05:35:59;97799.00;;;17.10;100.00
70506;BME280;58032;49.820;6.274;2023-07-13T05:38:27;97796.00;;;17.19;100.00
70506;BME280;58032;49.820;6.274;2023-07-13T05:40:55;97800.88;;;16.92;100.00
70506;BME280;58032;49.820;6.274;2023-07-13T05:43:23;97799.09;;;16.95;100.00
70506;BME280;58032;49.820;6.274;2023-07-13T05:45:53;97797.16;;;17.07;100.00
70506;BME280;58032;49.820;6.274;2023-07-13T05:48:20;97804.13;;;16.85;100.00
70506;BME280;58032;49.820;6.274;2023-07-13T05:50:47;97807.34;;;16.57;100.00
70506;BME280;58032;49.820;6.274;2023-07-13T05:53:15;97804.16;;;16.50;100.00
70506;BME280;58032;49.820;6.274;2023-07-13T05:55:46;97808.06;;;16.52;100.00
70506;BME280;58032;49.820;6.274;2023-07-13T05:58:17;97805.38;;;16.84;100.00
70506;BME280;58032;49.820;6.274;2023-07-13T06:00:45;97795.97;;;16.57;100.00
70506;BME280;58032;49.820;6.274;2023-07-13T06:03:12;97799.97;;;16.66;100.00
70506;BME280;58032;49.820;6.274;2023-07-13T06:05:39;97803.88;;;16.68;100.00
70506;BME280;58032;49.820;6.274;2023-07-13T06:08:07;97806.66;;;16.63;100.00
70506;BME280;58032;49.820;6.274;2023-07-13T06:10:35;97805.53;;;16.75;100.00
70506;BME280;58032;49.820;6.274;2023-07-13T06:13:02;97803.81;;;16.83;100.00
70506;BME280;58032;49.820;6.274;2023-07-13T06:15:29;97805.72;;;16.92;100.00
70506;BME280;58032;49.820;6.274;2023-07-13T06:17:56;97818.50;;;16.97;100.00
70506;BME280;58032;49.820;6.274;2023-07-13T06:20:23;97821.75;;;17.10;100.00
70506;BME280;58032;49.820;6.274;2023-07-13T06:22:50;97816.84;;;17.31;100.00
70506;BME280;58032;49.820;6.274;2023-07-13T06:25:17;97825.75;;;16.98;100.00
70506;BME280;58032;49.820;6.274;2023-07-13T06:27:44;97827.34;;;17.46;100.00
70506;BME280;58032;49.820;6.274;2023-07-13T06:30:11;97822.22;;;17.76;100.00
70506;BME280;58032;49.820;6.274;2023-07-13T06:32:38;97822.31;;;17.35;100.00
70506;BME280;58032;49.820;6.274;2023-07-13T06:35:07;97823.38;;;17.64;100.00
70506;BME280;58032;49.820;6.274;2023-07-13T06:37:34;97821.25;;;18.11;100.00
70506;BME280;58032;49.820;6.274;2023-07-13T06:40:00;97822.88;;;17.92;100.00
70506;BME280;58032;49.820;6.274;2023-07-13T06:42:27;97820.41;;;18.37;100.00
70506;BME280;58032;49.820;6.274;2023-07-13T06:44:54;97824.84;;;18.38;100.00
70506;BME280;58032;49.820;6.274;2023-07-13T06:47:21;97831.72;;;18.26;100.00
70506;BME280;58032;49.820;6.274;2023-07-13T06:49:48;97829.44;;;18.30;100.00
70506;BME280;58032;49.820;6.274;2023-07-13T06:52:15;97830.84;;;17.87;100.00
70506;BME280;58032;49.820;6.274;2023-07-13T06:54:42;97829.69;;;18.70;100.00
70506;BME280;58032;49.820;6.274;2023-07-13T06:57:09;97826.47;;;19.60;100.00
70506;BME280;58032;49.820;6.274;2023-07-13T06:59:36;97830.19;;;19.95;100.00
70506;BME280;58032;49.820;6.274;2023-07-13T07:02:03;97822.63;;;19.86;100.00
70506;BME280;58032;49.820;6.274;2023-07-13T07:04:31;97833.63;;;18.78;100.00
70506;BME280;58032;49.820;6.274;2023-07-13T07:06:58;97830.53;;;19.30;100.00
70506;BME280;58032;49.820;6.274;2023-07-13T07:09:25;97819.72;;;19.74;100.00
70506;BME280;58032;49.820;6.274;2023-07-13T07:11:52;97827.13;;;19.21;100.00
70506;BME280;58032;49.820;6.274;2023-07-13T07:14:27;97831.22;;;20.03;100.00
70506;BME280;58032;49.820;6.274;2023-07-13T07:16:54;97828.34;;;20.48;100.00
70506;BME280;58032;49.820;6.274;2023-07-13T07:19:21;97834.84;;;19.98;100.00
70506;BME280;58032;49.820;6.274;2023-07-13T07:21:48;97841.31;;;19.87;100.00
70506;BME280;58032;49.820;6.274;2023-07-13T07:24:15;97842.66;;;20.37;100.00
70506;BME280;58032;49.820;6.274;2023-07-13T07:26:44;97829.13;;;19.86;100.00
70506;BME280;58032;49.820;6.274;2023-07-13T07:29:14;97840.69;;;19.43;100.00
70506;BME280;58032;49.820;6.274;2023-07-13T07:31:44;97837.81;;;19.43;100.00
70506;BME280;58032;49.820;6.274;2023-07-13T07:34:14;97838.19;;;19.79;100.00
70506;BME280;58032;49.820;6.274;2023-07-13T07:36:41;97835.91;;;20.12;100.00
70506;BME280;58032;49.820;6.274;2023-07-13T07:39:10;97838.75;;;20.46;100.00
70506;BME280;58032;49.820;6.274;2023-07-13T07:41:38;97832.19;;;20.85;100.00
70506;BME280;58032;49.820;6.274;2023-07-13T07:44:08;97832.28;;;21.32;100.00
70506;BME280;58032;49.820;6.274;2023-07-13T07:46:36;97837.13;;;21.60;100.00
70506;BME280;58032;49.820;6.274;2023-07-13T07:49:03;97836.22;;;21.77;100.00
70506;BME280;58032;49.820;6.274;2023-07-13T07:51:30;97835.00;;;21.66;100.00
70506;BME280;58032;49.820;6.274;2023-07-13T07:53:57;97846.69;;;21.10;100.00
70506;BME280;58032;49.820;6.274;2023-07-13T07:56:24;97848.59;;;20.50;100.00
70506;BME280;58032;49.820;6.274;2023-07-13T07:58:54;97845.34;;;19.40;100.00
70506;BME280;58032;49.820;6.274;2023-07-13T08:01:24;97853.72;;;18.95;100.00
70506;BME280;58032;49.820;6.274;2023-07-13T08:03:53;97837.88;;;19.54;100.00
70506;BME280;58032;49.820;6.274;2023-07-13T08:06:24;97837.47;;;20.13;100.00
70506;BME280;58032;49.820;6.274;2023-07-13T08:08:54;97847.31;;;19.89;100.00
70506;BME280;58032;49.820;6.274;2023-07-13T08:11:22;97845.66;;;19.59;100.00
70506;BME280;58032;49.820;6.274;2023-07-13T08:13:52;97852.78;;;20.55;100.00
70506;BME280;58032;49.820;6.274;2023-07-13T08:16:20;97835.19;;;21.80;100.00
70506;BME280;58032;49.820;6.274;2023-07-13T08:18:47;97836.91;;;22.61;100.00
70506;BME280;58032;49.820;6.274;2023-07-13T08:21:14;97842.94;;;22.82;100.00
70506;BME280;58032;49.820;6.274;2023-07-13T08:23:41;97838.09;;;22.71;100.00
70506;BME280;58032;49.820;6.274;2023-07-13T08:26:08;97828.09;;;23.28;100.00
70506;BME280;58032;49.820;6.274;2023-07-13T08:28:35;97828.50;;;23.57;100.00
70506;BME280;58032;49.820;6.274;2023-07-13T08:31:06;97825.34;;;22.06;100.00
70506;BME280;58032;49.820;6.274;2023-07-13T08:33:36;97830.66;;;22.26;100.00
70506;BME280;58032;49.820;6.274;2023-07-13T08:36:03;97832.88;;;22.45;100.00
70506;BME280;58032;49.820;6.274;2023-07-13T08:38:31;97831.13;;;22.30;100.00
70506;BME280;58032;49.820;6.274;2023-07-13T08:40:58;97828.06;;;22.84;100.00
70506;BME280;58032;49.820;6.274;2023-07-13T08:43:30;97825.75;;;23.83;93.39
70506;BME280;58032;49.820;6.274;2023-07-13T08:46:13;97835.19;;;23.46;81.35
70506;BME280;58032;49.820;6.274;2023-07-13T08:48:45;97833.84;;;23.03;82.56
70506;BME280;58032;49.820;6.274;2023-07-13T08:51:21;97833.97;;;24.44;78.57
70506;BME280;58032;49.820;6.274;2023-07-13T08:53:55;97853.09;;;23.33;76.10
70506;BME280;58032;49.820;6.274;2023-07-13T08:56:26;97845.63;;;22.99;77.54
70506;BME280;58032;49.820;6.274;2023-07-13T08:59:06;97832.91;;;23.19;78.64
70506;BME280;58032;49.820;6.274;2023-07-13T09:04:18;97829.09;;;23.05;78.13
70506;BME280;58032;49.820;6.274;2023-07-13T09:10:01;97830.06;;;23.96;77.25
70506;BME280;58032;49.820;6.274;2023-07-13T09:15:40;97837.97;;;22.58;76.06
70506;BME280;58032;49.820;6.274;2023-07-13T09:18:21;97834.00;;;23.74;76.36
70506;BME280;58032;49.820;6.274;2023-07-13T09:21:03;97833.34;;;24.65;69.24
70506;BME280;58032;49.820;6.274;2023-07-13T09:23:31;97828.00;;;24.56;65.66
70506;BME280;58032;49.820;6.274;2023-07-13T09:26:05;97835.25;;;23.78;68.05
70506;BME280;58032;49.820;6.274;2023-07-13T09:28:45;97833.38;;;23.62;69.21
70506;BME280;58032;49.820;6.274;2023-07-13T09:31:38;97842.22;;;23.26;69.46
70506;BME280;58032;49.820;6.274;2023-07-13T09:34:10;97836.16;;;23.04;74.16
70506;BME280;58032;49.820;6.274;2023-07-13T09:36:38;97829.56;;;22.90;73.86
70506;BME280;58032;49.820;6.274;2023-07-13T09:42:23;97824.16;;;22.81;80.59
70506;BME280;58032;49.820;6.274;2023-07-13T09:44:34;97828.38;;;22.50;81.96
70506;BME280;58032;49.820;6.274;2023-07-13T09:47:02;97838.63;;;22.09;86.42
70506;BME280;58032;49.820;6.274;2023-07-13T09:49:34;97826.75;;;22.85;88.19
70506;BME280;58032;49.820;6.274;2023-07-13T09:52:10;97829.56;;;22.90;84.89
70506;BME280;58032;49.820;6.274;2023-07-13T09:54:38;97834.22;;;22.38;83.11
70506;BME280;58032;49.820;6.274;2023-07-13T09:57:19;97834.31;;;21.91;82.01
70506;BME280;58032;49.820;6.274;2023-07-13T09:59:52;97831.34;;;21.66;83.76
70506;BME280;58032;49.820;6.274;2023-07-13T10:02:28;97833.97;;;21.64;84.83
70506;BME280;58032;49.820;6.274;2023-07-13T10:05:02;97829.25;;;21.72;84.49
70506;BME280;58032;49.820;6.274;2023-07-13T10:07:31;97842.13;;;21.48;83.59
70506;BME280;58032;49.820;6.274;2023-07-13T10:10:00;97840.09;;;21.38;83.23
70506;BME280;58032;49.820;6.274;2023-07-13T10:12:30;97841.03;;;21.57;82.23
70506;BME280;58032;49.820;6.274;2023-07-13T10:14:58;97832.88;;;21.73;80.10
70506;BME280;58032;49.820;6.274;2023-07-13T10:17:34;97832.16;;;22.03;75.89
70506;BME280;58032;49.820;6.274;2023-07-13T10:20:04;97844.16;;;22.32;76.95
70506;BME280;58032;49.820;6.274;2023-07-13T10:22:50;97840.44;;;22.42;79.40
70506;BME280;58032;49.820;6.274;2023-07-13T10:25:26;97841.50;;;22.03;81.10
70506;BME280;58032;49.820;6.274;2023-07-13T10:28:19;97848.31;;;22.67;85.63
70506;BME280;58032;49.820;6.274;2023-07-13T10:30:52;97850.47;;;22.85;79.61
70506;BME280;58032;49.820;6.274;2023-07-13T10:33:20;97838.91;;;22.66;77.81
70506;BME280;58032;49.820;6.274;2023-07-13T10:35:49;97842.56;;;22.91;74.88
70506;BME280;58032;49.820;6.274;2023-07-13T10:38:22;97845.84;;;22.52;80.17
70506;BME280;58032;49.820;6.274;2023-07-13T10:40:58;97832.81;;;22.20;77.18
70506;BME280;58032;49.820;6.274;2023-07-13T10:43:35;97846.22;;;22.37;80.64
70506;BME280;58032;49.820;6.274;2023-07-13T10:46:11;97840.00;;;22.33;80.60
70506;BME280;58032;49.820;6.274;2023-07-13T10:48:40;97842.88;;;21.96;80.42
70506;BME280;58032;49.820;6.274;2023-07-13T10:51:09;97846.03;;;21.93;86.05
70506;BME280;58032;49.820;6.274;2023-07-13T10:53:39;97842.44;;;22.53;80.65
70506;BME280;58032;49.820;6.274;2023-07-13T10:56:28;97841.72;;;22.11;74.83
70506;BME280;58032;49.820;6.274;2023-07-13T10:59:25;97848.16;;;22.53;79.27
70506;BME280;58032;49.820;6.274;2023-07-13T11:04:40;97850.34;;;22.72;71.93
70506;BME280;58032;49.820;6.274;2023-07-13T11:07:18;97851.97;;;22.67;73.63
70506;BME280;58032;49.820;6.274;2023-07-13T11:09:50;97845.03;;;23.50;73.08
70506;BME280;58032;49.820;6.274;2023-07-13T11:20:10;97846.91;;;23.29;65.95
70506;BME280;58032;49.820;6.274;2023-07-13T11:25:32;97850.31;;;23.65;64.49
70506;BME280;58032;49.820;6.274;2023-07-13T11:30:44;97847.34;;;24.74;63.55
70506;BME280;58032;49.820;6.274;2023-07-13T11:36:06;97851.69;;;25.08;59.41
70506;BME280;58032;49.820;6.274;2023-07-13T11:38:40;97841.72;;;24.36;55.11
70506;BME280;58032;49.820;6.274;2023-07-13T11:41:20;97835.72;;;25.47;54.15
70506;BME280;58032;49.820;6.274;2023-07-13T11:43:54;97849.91;;;24.45;51.11
70506;BME280;58032;49.820;6.274;2023-07-13T11:46:24;97852.69;;;25.10;51.95
70506;BME280;58032;49.820;6.274;2023-07-13T11:48:52;97847.25;;;24.93;52.84
70506;BME280;58032;49.820;6.274;2023-07-13T11:51:46;97858.97;;;22.72;57.48
70506;BME280;58032;49.820;6.274;2023-07-13T11:57:01;97854.34;;;21.96;68.25
70506;BME280;58032;49.820;6.274;2023-07-13T11:59:38;97845.59;;;22.19;71.25
70506;BME280;58032;49.820;6.274;2023-07-13T12:02:28;97861.72;;;22.58;73.56
70506;BME280;58032;49.820;6.274;2023-07-13T12:04:56;97848.59;;;24.60;63.47
70506;BME280;58032;49.820;6.274;2023-07-13T12:07:24;97857.63;;;23.66;61.65
70506;BME280;58032;49.820;6.274;2023-07-13T12:09:51;97857.47;;;23.59;66.55
70506;BME280;58032;49.820;6.274;2023-07-13T12:12:21;97865.84;;;22.88;64.78
70506;BME280;58032;49.820;6.274;2023-07-13T12:14:54;97867.50;;;22.53;72.53
70506;BME280;58032;49.820;6.274;2023-07-13T12:17:23;97871.75;;;22.04;73.49
70506;BME280;58032;49.820;6.274;2023-07-13T12:19:52;97861.81;;;22.47;76.97
70506;BME280;58032;49.820;6.274;2023-07-13T12:22:20;97858.03;;;22.88;73.10
70506;BME280;58032;49.820;6.274;2023-07-13T12:24:47;97854.28;;;23.81;69.57
70506;BME280;58032;49.820;6.274;2023-07-13T12:27:20;97851.84;;;24.24;62.46
70506;BME280;58032;49.820;6.274;2023-07-13T12:30:29;97857.41;;;22.71;60.97
70506;BME280;58032;49.820;6.274;2023-07-13T12:33:02;97858.28;;;22.29;65.39
70506;BME280;58032;49.820;6.274;2023-07-13T12:35:40;97856.81;;;22.17;66.04
70506;BME280;58032;49.820;6.274;2023-07-13T12:38:11;97852.44;;;22.47;67.55
70506;BME280;58032;49.820;6.274;2023-07-13T12:40:39;97865.50;;;22.42;67.11
70506;BME280;58032;49.820;6.274;2023-07-13T12:43:14;97868.50;;;22.86;69.19
70506;BME280;58032;49.820;6.274;2023-07-13T12:45:59;97877.03;;;22.91;69.34
70506;BME280;58032;49.820;6.274;2023-07-13T12:48:26;97880.81;;;23.05;69.93
70506;BME280;58032;49.820;6.274;2023-07-13T12:51:00;97876.44;;;22.43;71.04
70506;BME280;58032;49.820;6.274;2023-07-13T12:53:30;97879.44;;;22.57;73.75
70506;BME280;58032;49.820;6.274;2023-07-13T12:56:01;97872.75;;;22.49;73.67
70506;BME280;58032;49.820;6.274;2023-07-13T12:58:36;97874.00;;;22.53;72.84
70506;BME280;58032;49.820;6.274;2023-07-13T13:01:05;97877.38;;;22.57;74.01
70506;BME280;58032;49.820;6.274;2023-07-13T13:03:37;97872.00;;;22.06;76.25
70506;BME280;58032;49.820;6.274;2023-07-13T13:06:20;97870.88;;;22.15;79.25
70506;BME280;58032;49.820;6.274;2023-07-13T13:08:58;97887.66;;;22.41;82.35
70506;BME280;58032;49.820;6.274;2023-07-13T13:11:28;97880.50;;;22.59;78.55
70506;BME280;58032;49.820;6.274;2023-07-13T13:13:56;97882.59;;;22.84;80.70
70506;BME280;58032;49.820;6.274;2023-07-13T13:16:32;97879.97;;;22.86;77.10
70506;BME280;58032;49.820;6.274;2023-07-13T13:19:25;97876.31;;;23.10;77.21
70506;BME280;58032;49.820;6.274;2023-07-13T13:21:54;97880.59;;;23.47;74.46
70506;BME280;58032;49.820;6.274;2023-07-13T13:24:25;97870.00;;;23.61;74.54
70506;BME280;58032;49.820;6.274;2023-07-13T13:26:53;97863.75;;;23.57;67.80
70506;BME280;58032;49.820;6.274;2023-07-13T13:29:22;97869.13;;;24.05;69.45
70506;BME280;58032;49.820;6.274;2023-07-13T13:31:53;97862.88;;;25.11;65.49
70506;BME280;58032;49.820;6.274;2023-07-13T13:34:23;97861.63;;;24.34;64.19
70506;BME280;58032;49.820;6.274;2023-07-13T13:36:51;97854.97;;;23.87;66.63
70506;BME280;58032;49.820;6.274;2023-07-13T13:39:22;97857.44;;;23.20;68.62